createdAt,value
2019-05-17T00:01:53.754Z,15.50
2019-05-17T00:03:57.434Z,15.40
2019-05-17T00:06:01.094Z,15.30
2019-05-17T00:08:07.383Z,15.20
2019-05-17T00:10:10.279Z,15.20
2019-05-17T00:12:16.475Z,15.10
2019-05-17T00:14:19.391Z,15.20
2019-05-17T00:16:23.026Z,15.10
2019-05-17T00:18:26.721Z,15.00
2019-05-17T00:20:30.404Z,14.80
2019-05-17T00:22:36.391Z,14.70
2019-05-17T00:24:39.499Z,14.50
2019-05-17T00:26:43.167Z,14.30
2019-05-17T00:28:47.043Z,14.30
2019-05-17T00:30:50.778Z,14.40
2019-05-17T00:32:56.800Z,14.40
2019-05-17T00:34:59.975Z,14.40
2019-05-17T00:37:03.640Z,14.30
2019-05-17T00:39:07.658Z,14.30
2019-05-17T00:41:11.345Z,14.40
2019-05-17T00:43:16.945Z,14.20
2019-05-17T00:45:20.419Z,14.20
2019-05-17T00:47:26.413Z,14.30
2019-05-17T00:49:29.511Z,14.20
2019-05-17T00:51:33.167Z,14.20
2019-05-17T00:53:36.859Z,14.10
2019-05-17T00:55:40.523Z,14.20
2019-05-17T00:57:44.190Z,14.20
2019-05-17T00:59:47.889Z,14.20
2019-05-17T01:01:51.563Z,14.10
2019-05-17T01:03:57.113Z,14.10
2019-05-17T01:06:00.642Z,14.00
2019-05-17T01:08:06.895Z,13.90
2019-05-17T01:10:11.151Z,13.90
2019-05-17T01:12:16.450Z,13.90
2019-05-17T01:14:20.325Z,13.80
2019-05-17T01:16:23.973Z,13.60
2019-05-17T01:18:27.647Z,13.50
2019-05-17T01:20:31.331Z,13.50
2019-05-17T01:22:36.678Z,13.50
2019-05-17T01:24:40.583Z,13.50
2019-05-17T01:26:46.710Z,13.50
2019-05-17T01:28:49.633Z,13.50
2019-05-17T01:30:53.318Z,13.50
2019-05-17T01:32:57.154Z,13.40
2019-05-17T01:35:00.867Z,13.30
2019-05-17T01:37:06.485Z,13.30
2019-05-17T01:39:17.771Z,13.10
2019-05-17T01:41:17.292Z,13.10
2019-05-17T01:43:20.886Z,13.20
2019-05-17T01:45:26.812Z,13.30
2019-05-17T01:47:29.957Z,13.20
2019-05-17T01:49:33.655Z,13.20
2019-05-17T01:51:37.351Z,13.20
2019-05-17T01:53:41.050Z,13.10
2019-05-17T01:55:46.591Z,12.90
2019-05-17T01:57:50.385Z,12.90
2019-05-17T01:59:54.052Z,12.80
2019-05-17T02:01:59.306Z,12.60
2019-05-17T02:04:03.068Z,12.50
2019-05-17T02:06:07.417Z,12.50
2019-05-17T02:08:11.525Z,12.60
2019-05-17T02:10:16.820Z,12.80
2019-05-17T02:12:20.727Z,12.70
2019-05-17T02:14:26.631Z,12.60
2019-05-17T02:16:29.804Z,12.30
2019-05-17T02:18:33.494Z,12.20
2019-05-17T02:20:37.541Z,12.40
2019-05-17T02:22:41.331Z,12.60
2019-05-17T02:24:46.418Z,12.70
2019-05-17T02:26:50.266Z,12.80
2019-05-17T02:28:53.930Z,12.80
2019-05-17T02:30:57.772Z,12.80
2019-05-17T02:33:03.704Z,12.70
2019-05-17T02:35:07.031Z,12.70
2019-05-17T02:37:13.455Z,12.60
2019-05-17T02:39:16.139Z,12.70
2019-05-17T02:41:22.636Z,12.70
2019-05-17T02:43:25.222Z,12.80
2019-05-17T02:45:29.010Z,12.80
2019-05-17T02:47:33.712Z,12.70
2019-05-17T02:49:37.629Z,12.60
2019-05-17T02:51:43.087Z,12.40
2019-05-17T02:53:47.091Z,12.30
2019-05-17T02:55:53.698Z,12.20
2019-05-17T02:57:56.271Z,12.20
2019-05-17T03:00:04.021Z,12.50
2019-05-17T03:02:05.455Z,12.70
2019-05-17T03:04:09.122Z,12.90
2019-05-17T03:06:13.643Z,13.10
2019-05-17T03:08:17.612Z,13.10
2019-05-17T03:10:27.511Z,13.20
2019-05-17T03:12:26.778Z,13.30
2019-05-17T03:14:32.833Z,13.30
2019-05-17T03:16:35.839Z,13.40
2019-05-17T03:18:39.728Z,13.40
2019-05-17T03:20:43.401Z,13.30
2019-05-17T03:22:47.095Z,13.60
2019-05-17T03:24:53.367Z,13.30
2019-05-17T03:26:57.121Z,13.30
2019-05-17T03:29:03.217Z,13.30
2019-05-17T03:31:08.914Z,13.20
2019-05-17T03:33:16.151Z,13.20
2019-05-17T03:35:18.121Z,13.30
2019-05-17T03:37:30.143Z,13.50
2019-05-17T03:39:27.805Z,13.70
2019-05-17T03:41:34.019Z,13.60
2019-05-17T03:43:40.314Z,13.50
2019-05-17T03:45:42.733Z,13.60
2019-05-17T03:47:46.478Z,13.60
2019-05-17T03:49:52.924Z,13.40
2019-05-17T03:51:55.758Z,13.50
2019-05-17T03:54:02.134Z,13.40
2019-05-17T03:56:05.031Z,13.30
2019-05-17T03:58:08.705Z,13.40
2019-05-17T04:00:13.477Z,13.60
2019-05-17T04:02:17.357Z,13.70
2019-05-17T04:04:22.944Z,13.80
2019-05-17T04:06:26.815Z,14.00
2019-05-17T04:08:33.210Z,14.10
2019-05-17T04:10:36.019Z,14.20
2019-05-17T04:12:39.701Z,14.10
2019-05-17T04:14:43.395Z,14.20
2019-05-17T04:16:47.067Z,14.30
2019-05-17T04:18:53.333Z,14.30
2019-05-17T04:20:56.225Z,14.30
2019-05-17T04:23:03.748Z,14.40
2019-05-17T04:25:06.813Z,14.40
2019-05-17T04:27:13.482Z,14.40
2019-05-17T04:29:16.066Z,14.40
2019-05-17T04:31:22.547Z,14.40
2019-05-17T04:33:25.125Z,14.50
2019-05-17T04:35:32.449Z,14.50
2019-05-17T04:37:38.303Z,14.50
2019-05-17T04:39:42.937Z,14.60
2019-05-17T04:41:50.376Z,14.60
2019-05-17T04:43:53.116Z,14.70
2019-05-17T04:45:56.343Z,14.60
2019-05-17T04:48:03.627Z,14.50
2019-05-17T04:50:06.237Z,14.60
2019-05-17T04:52:09.982Z,14.40
2019-05-17T04:54:14.092Z,14.40
2019-05-17T04:56:17.919Z,14.50
2019-05-17T04:58:23.295Z,14.50
2019-05-17T05:00:27.007Z,13.60
2019-05-17T05:02:33.079Z,13.80
2019-05-17T05:04:38.482Z,14.10
2019-05-17T05:06:43.526Z,14.30
2019-05-17T05:08:46.915Z,14.50
2019-05-17T05:10:53.510Z,14.70
2019-05-17T05:12:56.909Z,14.80
2019-05-17T05:15:03.393Z,14.90
2019-05-17T05:17:06.295Z,14.90
2019-05-17T05:19:12.803Z,15.00
2019-05-17T05:21:15.490Z,15.10
2019-05-17T05:23:19.199Z,15.00
2019-05-17T05:25:22.919Z,14.90
2019-05-17T05:27:26.604Z,14.90
2019-05-17T05:29:32.133Z,15.00
2019-05-17T05:31:35.929Z,15.00
2019-05-17T05:33:41.833Z,15.00
2019-05-17T05:35:45.123Z,15.00
2019-05-17T05:37:48.923Z,15.10
2019-05-17T05:39:54.674Z,15.10
2019-05-17T05:42:06.834Z,14.90
2019-05-17T05:44:03.401Z,15.10
2019-05-17T05:46:07.095Z,15.10
2019-05-17T05:48:12.797Z,15.20
2019-05-17T05:50:17.715Z,14.40
2019-05-17T05:52:21.964Z,14.40
2019-05-17T05:54:25.649Z,14.70
2019-05-17T05:56:29.367Z,14.90
2019-05-17T05:58:33.133Z,15.20
2019-05-17T06:00:36.786Z,15.30
2019-05-17T06:02:41.873Z,15.40
2019-05-17T06:04:45.969Z,15.50
2019-05-17T06:06:52.090Z,15.60
2019-05-17T06:08:55.056Z,15.70
2019-05-17T06:10:58.760Z,15.50
2019-05-17T06:13:03.268Z,14.60
2019-05-17T06:15:07.755Z,14.90
2019-05-17T06:17:12.612Z,14.90
2019-05-17T06:19:16.462Z,15.20
2019-05-17T06:21:22.453Z,15.20
2019-05-17T06:23:25.548Z,15.10
2019-05-17T06:25:29.212Z,15.00
2019-05-17T06:27:32.904Z,15.10
2019-05-17T06:29:36.570Z,15.20
2019-05-17T06:31:40.230Z,15.30
2019-05-17T06:33:43.955Z,15.50
2019-05-17T06:35:47.655Z,15.50
2019-05-17T06:37:53.499Z,14.90
2019-05-17T06:39:56.751Z,14.90
2019-05-17T06:42:02.588Z,13.90
2019-05-17T06:44:05.926Z,14.00
2019-05-17T06:46:09.596Z,13.80
2019-05-17T06:48:13.263Z,14.20
2019-05-17T06:50:16.990Z,14.70
2019-05-17T06:52:22.571Z,14.60
2019-05-17T06:54:26.177Z,14.10
2019-05-17T06:56:32.052Z,13.90
2019-05-17T06:58:35.222Z,13.90
2019-05-17T07:00:40.428Z,14.60
2019-05-17T07:02:44.348Z,15.10
2019-05-17T07:04:48.053Z,15.50
2019-05-17T07:06:53.284Z,15.70
2019-05-17T07:08:57.529Z,15.70
2019-05-17T07:11:01.193Z,15.50
2019-05-17T07:13:04.855Z,15.60
2019-05-17T07:15:10.741Z,15.70
2019-05-17T07:17:14.137Z,15.60
2019-05-17T07:19:19.751Z,15.50
2019-05-17T07:21:23.242Z,15.50
2019-05-17T07:23:26.900Z,15.50
2019-05-17T07:25:30.599Z,15.70
2019-05-17T07:27:41.394Z,15.60
2019-05-17T07:29:40.369Z,15.30
2019-05-17T07:31:44.329Z,15.10
2019-05-17T07:33:50.337Z,15.10
2019-05-17T07:35:53.476Z,15.30
2019-05-17T07:37:59.359Z,15.40
2019-05-17T07:40:05.190Z,15.50
2019-05-17T07:42:09.678Z,15.40
2019-05-17T07:44:13.374Z,15.60
2019-05-17T07:46:17.122Z,15.60
2019-05-17T07:48:20.801Z,15.80
2019-05-17T07:50:24.568Z,16.00
2019-05-17T07:52:30.026Z,15.90
2019-05-17T07:54:33.854Z,15.80
2019-05-17T07:56:40.008Z,16.00
2019-05-17T07:58:42.991Z,15.80
2019-05-17T08:00:46.774Z,16.00
2019-05-17T08:02:50.589Z,16.20
2019-05-17T08:04:54.294Z,15.70
2019-05-17T08:06:59.780Z,15.90
2019-05-17T08:09:05.057Z,16.00
2019-05-17T08:11:10.639Z,16.00
2019-05-17T08:13:25.805Z,16.30
2019-05-17T08:15:19.872Z,16.60
2019-05-17T08:17:23.634Z,16.50
2019-05-17T08:19:29.870Z,16.50
2019-05-17T08:21:33.633Z,16.50
2019-05-17T08:23:39.835Z,16.70
2019-05-17T08:25:52.845Z,16.70
2019-05-17T08:27:50.181Z,16.50
2019-05-17T08:29:53.491Z,16.30
2019-05-17T08:31:57.198Z,16.50
2019-05-17T08:34:00.872Z,16.30
2019-05-17T08:36:04.547Z,16.10
2019-05-17T08:38:10.404Z,16.00
2019-05-17T08:40:15.357Z,16.20
2019-05-17T08:42:20.445Z,16.60
2019-05-17T08:44:24.239Z,16.80
2019-05-17T08:46:30.353Z,17.00
2019-05-17T08:48:33.336Z,16.90
2019-05-17T08:50:37.009Z,16.80
2019-05-17T08:52:40.718Z,16.70
2019-05-17T08:54:44.362Z,16.70
2019-05-17T08:56:50.284Z,17.00
2019-05-17T08:58:53.645Z,16.70
2019-05-17T09:01:00.008Z,16.70
2019-05-17T09:03:02.822Z,16.80
2019-05-17T09:05:06.688Z,17.00
2019-05-17T09:07:10.355Z,17.10
2019-05-17T09:09:14.047Z,16.90
2019-05-17T09:11:19.688Z,17.00
2019-05-17T09:13:23.267Z,17.10
2019-05-17T09:15:27.107Z,17.10
2019-05-17T09:17:30.845Z,17.20
2019-05-17T09:19:34.810Z,17.10
2019-05-17T09:21:39.730Z,17.50
2019-05-17T09:23:43.789Z,17.50
2019-05-17T09:25:49.908Z,17.60
2019-05-17T09:27:53.055Z,17.90
2019-05-17T09:29:56.785Z,17.80
2019-05-17T09:32:00.496Z,17.90
2019-05-17T09:34:04.270Z,17.70
2019-05-17T09:36:10.108Z,17.70
2019-05-17T09:38:13.551Z,17.70
2019-05-17T09:40:19.831Z,18.20
2019-05-17T09:42:22.773Z,18.20
2019-05-17T09:44:26.668Z,18.40
2019-05-17T09:46:30.492Z,18.50
2019-05-17T09:48:34.245Z,18.40
2019-05-17T09:50:39.894Z,18.40
2019-05-17T09:52:43.482Z,18.40
2019-05-17T09:54:47.489Z,18.20
2019-05-17T09:56:51.195Z,18.00
2019-05-17T09:58:54.938Z,18.20
2019-05-17T10:01:01.365Z,18.50
2019-05-17T10:03:04.116Z,18.40
2019-05-17T10:05:10.321Z,18.50
2019-05-17T10:07:13.394Z,18.40
2019-05-17T10:09:19.489Z,18.70
2019-05-17T10:11:22.482Z,18.60
2019-05-17T10:13:26.246Z,18.70
2019-05-17T10:15:30.132Z,18.60
2019-05-17T10:17:34.140Z,18.70
2019-05-17T10:19:43.072Z,17.90
2019-05-17T10:21:46.883Z,18.50
2019-05-17T10:23:50.634Z,18.50
2019-05-17T10:25:54.345Z,18.90
2019-05-17T10:28:00.356Z,19.00
2019-05-17T10:30:04.931Z,18.60
2019-05-17T10:32:10.487Z,18.60
2019-05-17T10:34:14.095Z,18.80
2019-05-17T10:36:20.021Z,18.90
2019-05-17T10:38:23.209Z,19.10
2019-05-17T10:40:27.120Z,17.90
2019-05-17T10:42:30.807Z,18.30
2019-05-17T10:44:46.204Z,18.80
2019-05-17T10:46:40.642Z,18.90
2019-05-17T10:48:44.440Z,18.90
2019-05-17T10:50:49.676Z,19.00
2019-05-17T10:52:53.461Z,19.20
2019-05-17T10:54:59.613Z,19.30
2019-05-17T10:57:02.542Z,19.50
2019-05-17T10:59:06.209Z,19.00
2019-05-17T11:01:10.378Z,19.00
2019-05-17T11:03:14.159Z,19.40
2019-05-17T11:05:19.946Z,19.40
2019-05-17T11:07:23.332Z,19.40
2019-05-17T11:09:26.981Z,19.60
2019-05-17T11:11:30.721Z,19.60
2019-05-17T11:13:34.403Z,19.50
2019-05-17T11:15:38.124Z,19.50
2019-05-17T11:17:42.163Z,19.40
2019-05-17T11:19:45.897Z,20.10
2019-05-17T11:21:49.623Z,19.60
2019-05-17T11:23:53.322Z,19.50
2019-05-17T11:25:57.650Z,19.80
2019-05-17T11:28:01.348Z,19.80
2019-05-17T11:30:06.325Z,19.80
2019-05-17T11:32:10.153Z,19.80
2019-05-17T11:34:13.947Z,19.90
2019-05-17T11:36:17.715Z,19.90
2019-05-17T11:38:21.436Z,20.00
2019-05-17T11:40:25.122Z,19.80
2019-05-17T11:42:28.846Z,20.00
2019-05-17T11:44:32.541Z,20.00
2019-05-17T11:46:36.708Z,20.30
2019-05-17T11:48:40.492Z,20.10
2019-05-17T11:50:44.271Z,20.40
2019-05-17T11:52:47.991Z,20.70
2019-05-17T11:54:51.660Z,20.60
2019-05-17T11:56:55.374Z,20.40
2019-05-17T11:58:59.058Z,20.40
2019-05-17T12:01:02.738Z,20.40
2019-05-17T12:03:06.460Z,20.90
2019-05-17T12:05:10.615Z,20.50
2019-05-17T12:07:14.298Z,20.60
2019-05-17T12:09:18.004Z,20.40
2019-05-17T12:11:21.681Z,20.40
2019-05-17T12:13:25.375Z,20.40
2019-05-17T12:15:43.854Z,20.40
2019-05-17T12:17:34.467Z,20.60
2019-05-17T12:19:38.132Z,20.90
2019-05-17T12:21:41.816Z,21.10
2019-05-17T12:23:45.623Z,21.00
2019-05-17T12:25:49.309Z,21.20
2019-05-17T12:27:53.039Z,20.90
2019-05-17T12:29:56.709Z,21.10
2019-05-17T12:32:00.389Z,20.90
2019-05-17T12:34:04.138Z,21.10
2019-05-17T12:36:07.863Z,21.00
2019-05-17T12:38:11.730Z,21.20
2019-05-17T12:40:15.661Z,21.00
2019-05-17T12:42:19.337Z,20.00
2019-05-17T12:44:23.154Z,20.40
2019-05-17T12:46:26.890Z,20.80
2019-05-17T12:48:30.583Z,21.00
2019-05-17T12:50:34.271Z,21.00
2019-05-17T12:52:37.937Z,21.10
2019-05-17T12:54:41.638Z,21.50
2019-05-17T12:56:45.308Z,21.70
2019-05-17T12:58:49.003Z,21.60
2019-05-17T13:00:52.671Z,21.70
2019-05-17T13:02:56.340Z,21.70
2019-05-17T13:05:00.139Z,21.80
2019-05-17T13:07:03.898Z,22.10
2019-05-17T13:09:07.771Z,22.20
2019-05-17T13:11:11.556Z,21.70
2019-05-17T13:13:15.220Z,21.90
2019-05-17T13:15:18.910Z,21.90
2019-05-17T13:17:22.645Z,22.10
2019-05-17T13:19:26.335Z,21.90
2019-05-17T13:21:30.301Z,21.60
2019-05-17T13:23:33.974Z,21.60
2019-05-17T13:25:37.746Z,21.90
2019-05-17T13:27:41.413Z,22.20
2019-05-17T13:29:45.114Z,22.10
2019-05-17T13:31:48.771Z,22.10
2019-05-17T13:33:52.451Z,21.90
2019-05-17T13:35:56.334Z,21.70
2019-05-17T13:38:00.003Z,21.50
2019-05-17T13:40:08.639Z,21.80
2019-05-17T13:42:12.323Z,22.10
2019-05-17T13:44:15.986Z,21.90
2019-05-17T13:46:32.112Z,22.20
2019-05-17T13:48:25.152Z,22.20
2019-05-17T13:50:28.866Z,22.30
2019-05-17T13:52:32.554Z,22.40
2019-05-17T13:54:36.230Z,22.40
2019-05-17T13:56:39.913Z,22.70
2019-05-17T13:58:43.671Z,22.90
2019-05-17T14:00:47.509Z,23.30
2019-05-17T14:02:51.178Z,23.00
2019-05-17T14:04:54.838Z,23.20
2019-05-17T14:06:58.523Z,22.90
2019-05-17T14:09:02.181Z,23.30
2019-05-17T14:11:05.862Z,23.40
2019-05-17T14:13:09.533Z,23.50
2019-05-17T14:15:13.394Z,23.30
2019-05-17T14:17:17.101Z,23.30
2019-05-17T14:19:20.768Z,23.20
2019-05-17T14:21:24.471Z,23.10
2019-05-17T14:23:28.123Z,23.30
2019-05-17T14:25:31.881Z,23.40
2019-05-17T14:27:35.556Z,23.60
2019-05-17T14:29:39.245Z,23.70
2019-05-17T14:31:42.989Z,23.60
2019-05-17T14:33:46.672Z,23.20
2019-05-17T14:35:50.400Z,23.30
2019-05-17T14:37:54.125Z,23.60
2019-05-17T14:39:57.832Z,23.60
2019-05-17T14:42:01.639Z,23.30
2019-05-17T14:44:05.513Z,22.80
2019-05-17T14:46:09.189Z,23.30
2019-05-17T14:48:12.890Z,23.40
2019-05-17T14:50:16.662Z,23.50
2019-05-17T14:52:20.359Z,23.50
2019-05-17T14:54:24.036Z,23.50
2019-05-17T14:56:27.864Z,23.70
2019-05-17T14:58:31.533Z,23.90
2019-05-17T15:00:35.239Z,24.00
2019-05-17T15:02:38.927Z,24.10
2019-05-17T15:04:42.666Z,24.20
2019-05-17T15:06:46.358Z,24.00
2019-05-17T15:08:50.101Z,24.00
2019-05-17T15:10:53.762Z,23.90
2019-05-17T15:13:01.036Z,23.50
2019-05-17T15:15:04.417Z,22.90
2019-05-17T15:17:08.087Z,22.40
2019-05-17T15:19:11.841Z,23.10
2019-05-17T15:21:15.524Z,23.40
2019-05-17T15:23:19.229Z,23.50
2019-05-17T15:25:22.896Z,23.40
2019-05-17T15:27:26.559Z,23.90
2019-05-17T15:29:30.252Z,24.20
2019-05-17T15:31:33.916Z,24.40
2019-05-17T15:33:37.634Z,24.20
2019-05-17T15:35:41.369Z,24.20
2019-05-17T15:37:45.083Z,24.40
2019-05-17T15:39:48.740Z,24.70
2019-05-17T15:41:52.406Z,24.20
2019-05-17T15:43:56.102Z,23.20
2019-05-17T15:45:59.762Z,23.70
2019-05-17T15:48:03.448Z,24.00
2019-05-17T15:50:07.565Z,23.80
2019-05-17T15:52:11.340Z,24.10
2019-05-17T15:54:15.019Z,24.50
2019-05-17T15:56:18.692Z,24.60
2019-05-17T15:58:22.381Z,23.20
2019-05-17T16:00:26.116Z,22.80
2019-05-17T16:02:29.769Z,23.50
2019-05-17T16:04:33.488Z,23.90
2019-05-17T16:06:37.192Z,23.80
2019-05-17T16:08:40.945Z,24.40
2019-05-17T16:10:44.707Z,24.60
2019-05-17T16:13:01.817Z,24.70
2019-05-17T16:14:53.857Z,24.70
2019-05-17T16:16:57.537Z,24.90
2019-05-17T16:19:01.338Z,24.40
2019-05-17T16:21:05.070Z,24.60
2019-05-17T16:23:08.737Z,24.70
2019-05-17T16:25:12.952Z,24.60
2019-05-17T16:27:16.667Z,24.20
2019-05-17T16:29:20.439Z,23.90
2019-05-17T16:31:24.086Z,24.20
2019-05-17T16:33:27.744Z,23.80
2019-05-17T16:35:31.714Z,24.00
2019-05-17T16:37:35.380Z,23.70
2019-05-17T16:39:39.067Z,24.80
2019-05-17T16:41:42.739Z,24.40
2019-05-17T16:43:46.388Z,24.30
2019-05-17T16:45:50.089Z,24.20
2019-05-17T16:47:53.754Z,24.20
2019-05-17T16:49:57.466Z,23.90
2019-05-17T16:52:01.129Z,23.90
2019-05-17T16:54:05.005Z,24.20
2019-05-17T16:56:08.694Z,24.30
2019-05-17T16:58:12.355Z,24.40
2019-05-17T17:00:30.633Z,24.50
2019-05-17T17:02:34.291Z,24.40
2019-05-17T17:04:38.060Z,24.30
2019-05-17T17:06:41.763Z,24.20
2019-05-17T17:08:45.439Z,23.40
2019-05-17T17:10:49.155Z,22.80
2019-05-17T17:12:52.847Z,23.10
2019-05-17T17:14:56.671Z,23.40
2019-05-17T17:17:00.343Z,23.50
2019-05-17T17:19:04.116Z,23.40
2019-05-17T17:21:08.046Z,23.60
2019-05-17T17:23:11.754Z,23.60
2019-05-17T17:25:15.474Z,23.60
2019-05-17T17:27:19.217Z,23.30
2019-05-17T17:29:22.884Z,23.30
2019-05-17T17:31:26.802Z,22.90
2019-05-17T17:33:30.451Z,23.00
2019-05-17T17:35:34.120Z,23.00
2019-05-17T17:37:37.808Z,22.80
2019-05-17T17:39:41.487Z,23.00
2019-05-17T17:41:45.260Z,23.20
2019-05-17T17:43:58.227Z,23.10
2019-05-17T17:45:54.459Z,23.30
2019-05-17T17:47:58.147Z,23.20
2019-05-17T17:50:01.891Z,23.30
2019-05-17T17:52:05.634Z,22.70
2019-05-17T17:54:09.318Z,22.70
2019-05-17T17:56:13.723Z,22.90
2019-05-17T17:58:17.564Z,22.80
2019-05-17T18:00:21.554Z,22.50
2019-05-17T18:02:25.768Z,22.70
2019-05-17T18:04:29.441Z,22.60
2019-05-17T18:06:33.090Z,22.80
2019-05-17T18:08:36.770Z,22.20
2019-05-17T18:10:40.672Z,22.50
2019-05-17T18:12:44.406Z,22.60
2019-05-17T18:14:48.071Z,22.70
2019-05-17T18:16:51.818Z,22.20
2019-05-17T18:18:55.526Z,22.10
2019-05-17T18:20:59.188Z,22.00
2019-05-17T18:23:03.028Z,22.10
2019-05-17T18:25:06.870Z,22.30
2019-05-17T18:27:10.556Z,22.30
2019-05-17T18:29:14.448Z,21.90
2019-05-17T18:31:18.116Z,21.60
2019-05-17T18:33:21.811Z,21.30
2019-05-17T18:35:25.480Z,21.00
2019-05-17T18:37:29.144Z,20.70
2019-05-17T18:39:32.821Z,20.80
2019-05-17T18:41:36.494Z,21.00
2019-05-17T18:43:40.246Z,21.50
2019-05-17T18:45:43.906Z,21.70
2019-05-17T18:47:50.355Z,21.30
2019-05-17T18:49:53.147Z,21.10
2019-05-17T18:51:56.802Z,21.40
2019-05-17T18:54:00.961Z,21.60
2019-05-17T18:56:04.627Z,21.80
2019-05-17T18:58:08.262Z,21.60
2019-05-17T19:00:12.295Z,21.60
2019-05-17T19:02:15.966Z,21.60
2019-05-17T19:04:19.695Z,21.10
2019-05-17T19:06:23.363Z,21.10
2019-05-17T19:08:27.093Z,21.20
2019-05-17T19:10:30.873Z,21.30
2019-05-17T19:12:34.550Z,20.00
2019-05-17T19:14:43.102Z,19.60
2019-05-17T19:16:43.623Z,19.40
2019-05-17T19:18:47.352Z,19.10
2019-05-17T19:20:51.041Z,18.20
2019-05-17T19:22:54.907Z,19.20
2019-05-17T19:24:58.583Z,19.50
2019-05-17T19:27:02.253Z,19.50
2019-05-17T19:29:05.916Z,19.80
2019-05-17T19:31:09.609Z,20.30
2019-05-17T19:33:13.291Z,20.40
2019-05-17T19:35:16.978Z,20.50
2019-05-17T19:37:20.796Z,20.60
2019-05-17T19:39:24.487Z,19.60
2019-05-17T19:41:28.183Z,19.70
2019-05-17T19:43:31.894Z,19.60
2019-05-17T19:45:35.584Z,20.00
2019-05-17T19:47:39.254Z,20.40
2019-05-17T19:49:42.979Z,20.40
2019-05-17T19:51:46.662Z,20.40
2019-05-17T19:53:50.383Z,20.40
2019-05-17T19:55:54.207Z,19.90
2019-05-17T19:57:57.907Z,20.00
2019-05-17T20:00:01.634Z,20.50
2019-05-17T20:02:06.633Z,20.60
2019-05-17T20:04:10.456Z,20.80
2019-05-17T20:06:14.149Z,20.90
2019-05-17T20:08:17.822Z,20.60
2019-05-17T20:10:21.915Z,20.10
2019-05-17T20:12:25.586Z,19.50
2019-05-17T20:14:29.257Z,19.50
2019-05-17T20:16:32.953Z,20.00
2019-05-17T20:18:36.629Z,20.20
2019-05-17T20:20:40.470Z,20.30
2019-05-17T20:22:44.154Z,20.50
2019-05-17T20:24:47.825Z,20.50
2019-05-17T20:26:51.502Z,20.20
2019-05-17T20:28:55.170Z,20.00
2019-05-17T20:30:58.884Z,19.80
2019-05-17T20:33:02.548Z,19.80
2019-05-17T20:35:06.999Z,19.50
2019-05-17T20:37:10.804Z,19.20
2019-05-17T20:39:14.461Z,19.40
2019-05-17T20:41:18.578Z,19.50
2019-05-17T20:43:22.298Z,19.70
2019-05-17T20:45:33.257Z,19.90
2019-05-17T20:47:31.366Z,19.90
2019-05-17T20:49:35.027Z,19.90
2019-05-17T20:51:38.730Z,19.90
2019-05-17T20:53:42.511Z,19.70
2019-05-17T20:55:46.169Z,19.80
2019-05-17T20:57:49.875Z,19.90
2019-05-17T20:59:53.618Z,19.70
2019-05-17T21:01:57.428Z,19.70
2019-05-17T21:04:01.074Z,19.30
2019-05-17T21:06:04.862Z,19.40
2019-05-17T21:08:08.547Z,19.20
2019-05-17T21:10:12.567Z,18.80
2019-05-17T21:12:16.272Z,18.50
2019-05-17T21:14:19.939Z,18.80
2019-05-17T21:16:23.594Z,19.10
2019-05-17T21:18:27.334Z,19.10
2019-05-17T21:20:30.992Z,19.20
2019-05-17T21:22:34.693Z,19.30
2019-05-17T21:24:38.442Z,19.60
2019-05-17T21:26:42.147Z,19.70
2019-05-17T21:28:47.316Z,19.20
2019-05-17T21:30:51.079Z,19.30
2019-05-17T21:32:54.752Z,19.40
2019-05-17T21:34:58.454Z,19.30
2019-05-17T21:37:02.118Z,19.40
2019-05-17T21:39:06.603Z,19.50
2019-05-17T21:41:10.246Z,19.30
2019-05-17T21:43:13.959Z,19.30
2019-05-17T21:45:17.612Z,19.30
2019-05-17T21:47:21.270Z,19.50
2019-05-17T21:49:25.137Z,19.50
2019-05-17T21:51:28.874Z,19.20
2019-05-17T21:53:32.607Z,19.40
2019-05-17T21:55:36.265Z,19.60
2019-05-17T21:57:39.924Z,19.80
2019-05-17T21:59:43.630Z,19.90
2019-05-17T22:01:47.298Z,19.20
2019-05-17T22:03:50.968Z,19.10
2019-05-17T22:05:54.635Z,18.60
2019-05-17T22:07:58.455Z,18.70
2019-05-17T22:10:02.153Z,18.90
2019-05-17T22:12:10.218Z,19.10
2019-05-17T22:14:13.998Z,19.00
2019-05-17T22:16:19.996Z,19.10
2019-05-17T22:18:23.115Z,18.80
2019-05-17T22:20:26.826Z,18.80
2019-05-17T22:22:30.489Z,18.30
2019-05-17T22:24:34.177Z,18.50
2019-05-17T22:26:37.866Z,18.40
2019-05-17T22:28:41.606Z,18.50
2019-05-17T22:30:45.298Z,18.40
2019-05-17T22:32:49.011Z,18.20
2019-05-17T22:34:52.711Z,17.80
2019-05-17T22:36:56.359Z,17.90
2019-05-17T22:39:00.060Z,18.00
2019-05-17T22:41:03.747Z,17.90
2019-05-17T22:43:07.410Z,18.20
2019-05-17T22:45:11.104Z,18.30
2019-05-17T22:47:14.767Z,18.40
2019-05-17T22:49:18.436Z,18.50
2019-05-17T22:51:22.295Z,18.50
2019-05-17T22:53:25.951Z,18.50
2019-05-17T22:55:29.652Z,18.60
2019-05-17T22:57:33.312Z,18.60
2019-05-17T22:59:37.003Z,18.70
2019-05-17T23:01:40.848Z,18.50
2019-05-17T23:03:44.515Z,18.70
2019-05-17T23:05:48.218Z,18.80
2019-05-17T23:07:51.880Z,18.80
2019-05-17T23:09:55.539Z,18.90
2019-05-17T23:11:59.243Z,19.10
2019-05-17T23:14:02.895Z,19.00
2019-05-17T23:16:08.131Z,18.80
2019-05-17T23:18:11.897Z,18.70
2019-05-17T23:20:15.563Z,18.80
2019-05-17T23:22:19.358Z,18.90
2019-05-17T23:24:23.077Z,18.90
2019-05-17T23:26:26.790Z,18.90
2019-05-17T23:28:30.570Z,19.00
2019-05-17T23:30:34.247Z,18.80
2019-05-17T23:32:37.935Z,18.30
2019-05-17T23:34:41.622Z,18.40
2019-05-17T23:36:45.412Z,18.40
2019-05-17T23:38:49.127Z,18.20
2019-05-17T23:40:52.831Z,18.50
2019-05-17T23:42:56.580Z,18.70
2019-05-17T23:45:00.239Z,18.90
2019-05-17T23:47:07.068Z,18.70
2019-05-17T23:49:09.449Z,17.70
2019-05-17T23:51:13.160Z,17.90
2019-05-17T23:53:16.827Z,18.10
2019-05-17T23:55:20.622Z,18.00
2019-05-17T23:57:24.318Z,18.00
2019-05-17T23:59:28.068Z,18.40
